Anangel Virtue — SVBO2 — position and weather

sailwx.info

Track history (hours):
 
Tides and Currents Weather Stations Pressure Air Temp Water Temp Dewpoint Dewpoint Depression Visibility Wind Speed Wind Dir Waves Ship Positions

Anangel Virtue

Last reported at 2018-May-14 15:06 UTC. Time now 2018-May-24 23:27 UTC.
Position N 33°16' E 131°38'.
Warning: this ship's position is 10 days out of date.

Length 292 m; draft 11.9 m.

Type: Cargo ship. MMSI: 241197000.

Date/timePositionNaut miles runAvg speedWind from/ knotsBaromVisibWave heightAir tempDewpointWater temp
2018-May-14 15:06N 33°16' E 131°38'0 0.0
2018-May-14 15:00N 33°16' E 131°38'0 0.3
2018-May-14 14:26N 33°16' E 131°38'1 2.0
2018-May-14 14:00N 33°17' E 131°39'5 9.4
2018-May-14 13:30N 33°18' E 131°44'3 4.4
2018-May-14 12:54N 33°17' E 131°47'0 0.2
2018-May-14 12:30N 33°17' E 131°47'0 0.1
2018-May-14 09:12N 33°17' E 131°47'0 0.1
2018-May-14 08:54N 33°17' E 131°47'0 0.1
2018-May-14 07:18N 33°17' E 131°47'0 0.3
2018-May-14 07:00N 33°17' E 131°47'0 0.2
2018-May-14 06:18N 33°17' E 131°47'0 0.2
2018-May-14 06:00N 33°17' E 131°47'0 0.1
2018-May-14 05:21N 33°17' E 131°47'0 0.0
2018-May-14 03:36N 33°17' E 131°47'0 0.0
2018-May-14 03:12N 33°17' E 131°47'0 0.0
2018-May-14 02:54N 33°17' E 131°47'0 0.1
2018-May-14 02:24N 33°17' E 131°47'0 0.0
2018-May-14 02:00N 33°17' E 131°47'0 0.0
2018-May-14 01:30N 33°17' E 131°47'0 0.0
2018-May-14 01:00N 33°17' E 131°47'0 0.1
2018-May-14 00:30N 33°17' E 131°47'0 0.1
2018-May-14 00:00N 33°17' E 131°47'0 0.1
2018-May-13 23:12N 33°17' E 131°47'0 0.1
2018-May-13 22:54N 33°17' E 131°47'0 0.2
2018-May-13 22:27N 33°17' E 131°47'0 0.2
2018-May-13 22:00N 33°17' E 131°47'0 0.0
2018-May-13 21:30N 33°17' E 131°47'0 0.1
2018-May-13 21:00N 33°17' E 131°47'0 0.0
2018-May-13 20:24N 33°17' E 131°47'0 0.1
2018-May-13 19:54N 33°17' E 131°47'0 0.1
2018-May-13 19:30N 33°17' E 131°47'0 0.1
2018-May-13 19:00N 33°17' E 131°47'0 0.0
2018-May-13 18:30N 33°17' E 131°47'0 0.0
2018-May-13 18:00N 33°17' E 131°47'0 0.0
2018-May-13 17:30N 33°17' E 131°47'0 0.0
2018-May-13 17:00N 33°17' E 131°47'0 0.1
2018-May-13 16:30N 33°17' E 131°47'0 0.0
2018-May-13 16:00N 33°17' E 131°47'0 0.1
2018-May-13 15:30N 33°17' E 131°47'0 0.1
2018-May-13 15:00N 33°17' E 131°47'0 0.1
2018-May-13 14:30N 33°17' E 131°47'0 0.0
2018-May-13 14:00N 33°17' E 131°47'0 0.1
2018-May-13 13:30N 33°17' E 131°47'0 0.3
2018-May-13 13:00N 33°17' E 131°47'2 3.8
2018-May-13 12:30N 33°18' E 131°49'611.9
2018-May-13 12:00N 33°20' E 131°56'611.8
2018-May-13 11:30N 33°18' E 132°02'611.7
2018-May-13 11:00N 33°12' E 132°00'3 6.0
2018-May-13 10:30N 33°10' E 132°03'3 6.5
2018-May-13 09:59N 33°08' E 132°06'5 8.4
2018-May-13 09:27N 33°05' E 132°10'4 8.0
2018-May-13 08:55N 33°02' E 132°14'911.8
2018-May-13 08:10N 32°55' E 132°19'212.0
2018-May-13 08:00N 32°53' E 132°20'4610.0
2018-May-13 03:21N 32°40' E 133°13'410.3
2018-May-13 03:00N 32°40' E 133°17'1511.0
2018-May-13 01:38N 32°42' E 133°35'9910.4
2018-May-12 16:05N 33°15' E 135°27'110.0
2018-May-12 15:59N 33°16' E 135°28'4711.0
2018-May-12 11:42N 33°39' E 136°17'1111.1
2018-May-12 10:41N 33°47' E 136°27'611.1
2018-May-12 10:09N 33°51' E 136°32'210.9
2018-May-12 09:56N 33°53' E 136°33'510.6
2018-May-12 09:30N 33°56' E 136°37'610.3
2018-May-12 08:56N 34°00' E 136°42'510.0
2018-May-12 08:29N 34°03' E 136°46'16 9.7
2018-May-12 06:51N 34°15' E 136°60'511.3
2018-May-12 06:27N 34°19' E 137°01'511.1
2018-May-12 05:59N 34°24' E 137°02'511.0
2018-May-12 05:30N 34°29' E 137°03'610.9
2018-May-12 04:57N 34°34' E 136°59'613.5
2018-May-12 04:30N 34°38' E 136°53'713.6
2018-May-12 04:00N 34°43' E 136°47'713.8
2018-May-12 03:30N 34°49' E 136°45'714.1
2018-May-12 03:01N 34°56' E 136°46'612.9
2018-May-12 02:30N 35°01' E 136°51'1 1.9
2018-May-12 02:00N 35°02' E 136°52'0 0.0
2018-May-12 01:31N 35°02' E 136°52'0 0.0
2018-May-12 00:56N 35°02' E 136°52'0 0.0
2018-May-12 00:29N 35°02' E 136°52'0 0.0
2018-May-11 23:59N 35°02' E 136°52'0 0.0
2018-May-11 23:29N 35°02' E 136°52'0 0.0
2018-May-11 22:59N 35°02' E 136°52'0 0.0
2018-May-11 22:29N 35°02' E 136°52'0 0.0
2018-May-11 21:56N 35°02' E 136°52'0 0.0
2018-May-11 21:29N 35°02' E 136°52'0 0.0
2018-May-11 20:59N 35°02' E 136°52'0 0.0
2018-May-11 20:29N 35°02' E 136°52'0 0.0
2018-May-11 19:59N 35°02' E 136°52'0 0.0
2018-May-11 19:29N 35°02' E 136°52'0 0.0
2018-May-11 18:59N 35°02' E 136°52'0 0.0
2018-May-11 18:29N 35°02' E 136°52'0 0.0
2018-May-11 17:59N 35°02' E 136°52'0 0.0
2018-May-11 17:26N 35°02' E 136°52'0 0.0
2018-May-11 16:56N 35°02' E 136°52'0 0.0
2018-May-11 16:29N 35°02' E 136°52'0 0.0
2018-May-11 15:56N 35°02' E 136°52'0 0.0
2018-May-11 15:26N 35°02' E 136°52'0 0.0
2018-May-11 14:59N 35°02' E 136°52'0 0.0
2018-May-11 14:26N 35°02' E 136°52'0 0.0
2018-May-11 13:59N 35°02' E 136°52'0 0.0
2018-May-11 13:29N 35°02' E 136°52'0 0.0
2018-May-11 12:59N 35°02' E 136°52'0 0.0
2018-May-11 12:29N 35°02' E 136°52'0 0.0
2018-May-11 11:59N 35°02' E 136°52'0 0.0
2018-May-11 11:29N 35°02' E 136°52'0 0.0
2018-May-11 10:59N 35°02' E 136°52'0 0.0
2018-May-11 10:26N 35°02' E 136°52'0 0.0
2018-May-11 09:59N 35°02' E 136°52'0 0.0
2018-May-11 09:29N 35°02' E 136°52'0 0.0
2018-May-11 08:59N 35°02' E 136°52'0 0.0
2018-May-11 08:26N 35°02' E 136°52'0 0.0
2018-May-11 07:59N 35°02' E 136°52'0 0.0
2018-May-11 07:26N 35°02' E 136°52'0 0.0
2018-May-11 06:59N 35°02' E 136°52'0 0.0
2018-May-11 06:29N 35°02' E 136°52'0 0.0
2018-May-11 05:53N 35°02' E 136°52'0 0.0
2018-May-11 05:29N 35°02' E 136°52'0 0.0
2018-May-11 04:59N 35°02' E 136°52'0 0.0
2018-May-11 04:29N 35°02' E 136°52'0 0.0
2018-May-11 03:59N 35°02' E 136°52'0 0.0
2018-May-11 03:29N 35°02' E 136°52'0 0.0
2018-May-11 02:59N 35°02' E 136°52'0 0.0
2018-May-11 02:29N 35°02' E 136°52'0 0.0
2018-May-11 01:59N 35°02' E 136°52'0 0.0
2018-May-11 01:29N 35°02' E 136°52'0 0.0
2018-May-11 00:59N 35°02' E 136°52'0 0.0
2018-May-11 00:29N 35°02' E 136°52'0 0.0
2018-May-10 23:59N 35°02' E 136°52'0 0.0
2018-May-10 23:26N 35°02' E 136°52'0 0.0
2018-May-10 22:59N 35°02' E 136°52'0 0.0
2018-May-10 22:26N 35°02' E 136°52'0 0.0
2018-May-10 21:59N 35°02' E 136°52'0 0.0
2018-May-10 21:29N 35°02' E 136°52'0 0.0
2018-May-10 20:56N 35°02' E 136°52'0 0.0
2018-May-10 20:29N 35°02' E 136°52'0 0.0
2018-May-10 19:56N 35°02' E 136°52'0 0.0
2018-May-10 19:26N 35°02' E 136°52'0 0.0
2018-May-10 18:59N 35°02' E 136°52'0 0.0
2018-May-10 18:29N 35°02' E 136°52'0 0.0
2018-May-10 17:56N 35°02' E 136°52'0 0.0
2018-May-10 17:29N 35°02' E 136°52'0 0.0
2018-May-10 16:56N 35°02' E 136°52'0 0.0
2018-May-10 16:23N 35°02' E 136°52'0 0.0
2018-May-10 15:59N 35°02' E 136°52'0 0.0
2018-May-10 15:29N 35°02' E 136°52'0 0.0
2018-May-10 14:59N 35°02' E 136°52'0 0.0
2018-May-10 14:29N 35°02' E 136°52'0 0.0
2018-May-10 13:59N 35°02' E 136°52'0 0.0
2018-May-10 13:26N 35°02' E 136°52'0 0.0
2018-May-10 12:56N 35°02' E 136°52'0 0.0
2018-May-10 12:29N 35°02' E 136°52'0 0.0
2018-May-10 11:59N 35°02' E 136°52'0 0.0
2018-May-10 11:29N 35°02' E 136°52'0 0.0
2018-May-10 10:56N 35°02' E 136°52'0 0.0
2018-May-10 10:26N 35°02' E 136°52'0 0.0
2018-May-10 09:59N 35°02' E 136°52'0 0.0
2018-May-10 09:26N 35°02' E 136°52'0 0.0
2018-May-10 08:59N 35°02' E 136°52'0 0.0
2018-May-10 08:29N 35°02' E 136°52'0 0.0
2018-May-10 07:56N 35°02' E 136°52'0 0.0
2018-May-10 07:29N 35°02' E 136°52'0 0.0
2018-May-10 06:56N 35°02' E 136°52'0 0.0
2018-May-10 06:29N 35°02' E 136°52'0 0.0
2018-May-10 05:59N 35°02' E 136°52'0 0.0
2018-May-10 05:26N 35°02' E 136°52'0 0.0
2018-May-10 04:59N 35°02' E 136°52'0 0.0
2018-May-10 04:29N 35°02' E 136°52'0 0.0
2018-May-10 03:56N 35°02' E 136°52'0 0.0
2018-May-10 03:26N 35°02' E 136°52'0 0.0
2018-May-10 02:59N 35°02' E 136°52'0 0.0
2018-May-10 02:26N 35°02' E 136°52'0 0.0
2018-May-10 01:59N 35°02' E 136°52'0 0.0
2018-May-10 01:29N 35°02' E 136°52'0 0.0
2018-May-10 00:59N 35°02' E 136°52'0 0.0
2018-May-10 00:29N 35°02' E 136°52'0 0.0
2018-May-09 23:59N 35°02' E 136°52'0 0.0
2018-May-09 23:29N 35°02' E 136°52'0 0.0
2018-May-09 22:59N 35°02' E 136°52'0 0.0
2018-May-09 22:29N 35°02' E 136°52'0 0.0
2018-May-09 21:56N 35°02' E 136°52'0 0.0
2018-May-09 21:29N 35°02' E 136°52'0 0.0
2018-May-09 20:59N 35°02' E 136°52'0 0.0
2018-May-09 20:29N 35°02' E 136°52'0 0.0
2018-May-09 19:59N 35°02' E 136°52'0 0.0
2018-May-09 19:29N 35°02' E 136°52'0 0.0
2018-May-09 18:59N 35°02' E 136°52'0 0.0
2018-May-09 18:29N 35°02' E 136°52'0 0.0
2018-May-09 17:59N 35°02' E 136°52'0 0.0
2018-May-09 17:29N 35°02' E 136°52'0 0.0
2018-May-09 16:56N 35°02' E 136°52'0 0.0
2018-May-09 16:29N 35°02' E 136°52'0 0.0
2018-May-09 15:56N 35°02' E 136°52'0 0.0
2018-May-09 15:29N 35°02' E 136°52'0 0.0
2018-May-09 14:59N 35°02' E 136°52'0 0.0
2018-May-09 14:29N 35°02' E 136°52'0 0.0
2018-May-09 13:56N 35°02' E 136°52'0 0.0
2018-May-09 13:26N 35°02' E 136°52'0 0.0
2018-May-09 12:56N 35°02' E 136°52'0 0.0
2018-May-09 12:29N 35°02' E 136°52'0 0.0
2018-May-09 11:59N 35°02' E 136°52'0 0.0
2018-May-09 11:26N 35°02' E 136°52'0 0.0
2018-May-09 10:59N 35°02' E 136°52'0 0.0
2018-May-09 10:29N 35°02' E 136°52'0 0.0
2018-May-09 09:59N 35°02' E 136°52'0 0.0
2018-May-09 09:29N 35°02' E 136°52'0 0.0
2018-May-09 08:59N 35°02' E 136°52'0 0.0
2018-May-09 08:29N 35°02' E 136°52'0 0.0
2018-May-09 07:56N 35°02' E 136°52'0 0.0
2018-May-09 07:29N 35°02' E 136°52'0 0.0
2018-May-09 06:56N 35°02' E 136°52'0 0.0
2018-May-09 06:26N 35°02' E 136°52'0 0.0
2018-May-09 05:56N 35°02' E 136°52'0 0.0
2018-May-09 05:29N 35°02' E 136°52'0 0.0
2018-May-09 04:56N 35°02' E 136°52'0 0.0
2018-May-09 04:29N 35°02' E 136°52'0 0.0
2018-May-09 03:59N 35°02' E 136°52'0 0.0
2018-May-09 03:29N 35°02' E 136°52'0 0.0
2018-May-09 02:59N 35°02' E 136°52'0 0.0
2018-May-09 02:29N 35°02' E 136°52'0 0.0
2018-May-09 01:56N 35°02' E 136°52'0 0.0
2018-May-09 01:29N 35°02' E 136°52'0 0.0
2018-May-09 00:56N 35°02' E 136°52'0 0.0
2018-May-09 00:29N 35°02' E 136°52'0 0.0
2018-May-08 23:59N 35°02' E 136°52'0 0.0
2018-May-08 23:29N 35°02' E 136°52'0 0.0
2018-May-08 22:59N 35°02' E 136°52'0 0.0
2018-May-08 22:29N 35°02' E 136°52'0 0.0
2018-May-08 21:59N 35°02' E 136°52'0 0.0
2018-May-08 21:29N 35°02' E 136°52'0 0.0
2018-May-08 20:56N 35°02' E 136°52'0 0.1
2018-May-08 20:30N 35°02' E 136°52'1 2.7
2018-May-08 20:01N 35°01' E 136°51'611.0
2018-May-08 19:30N 34°57' E 136°47'4 8.9
2018-May-08 19:00N 34°53' E 136°43'0 0.1
2018-May-08 18:25N 34°53' E 136°43'0 0.1
2018-May-08 17:58N 34°53' E 136°43'0 0.2
2018-May-08 17:25N 34°54' E 136°43'0 0.2
2018-May-08 16:58N 34°54' E 136°43'0 0.1
2018-May-08 16:28N 34°54' E 136°43'0 0.0
2018-May-08 15:55N 34°54' E 136°43'0 0.0
2018-May-08 15:28N 34°54' E 136°43'0 0.0
2018-May-08 14:58N 34°54' E 136°43'0 0.0
2018-May-08 14:28N 34°54' E 136°43'0 0.0
2018-May-08 13:58N 34°54' E 136°43'0 0.1
2018-May-08 13:28N 34°54' E 136°43'0 0.0
2018-May-08 12:58N 34°53' E 136°43'0 0.1
2018-May-08 12:25N 34°54' E 136°43'0 0.1
2018-May-08 11:58N 34°54' E 136°43'0 0.1
2018-May-08 11:28N 34°54' E 136°43'0 0.0
2018-May-08 10:58N 34°54' E 136°43'0 0.1
2018-May-08 10:25N 34°54' E 136°43'0 0.1
2018-May-08 09:43N 34°54' E 136°43'0 0.0
2018-May-08 09:25N 34°54' E 136°43'0 0.0
2018-May-08 08:58N 34°54' E 136°43'0 0.1
2018-May-08 08:19N 34°54' E 136°43'0 0.1
2018-May-08 07:55N 34°54' E 136°43'0 0.0
2018-May-08 07:25N 34°54' E 136°43'0 0.0
2018-May-08 06:55N 34°54' E 136°43'0 0.0
2018-May-08 06:25N 34°54' E 136°43'0 0.1
2018-May-08 05:58N 34°54' E 136°43'0 0.1
2018-May-08 05:28N 34°54' E 136°43'0 0.0
2018-May-08 04:58N 34°54' E 136°43'0 0.0
2018-May-08 04:28N 34°54' E 136°43'0 0.0
2018-May-08 03:55N 34°54' E 136°43'0 0.0
2018-May-08 03:28N 34°54' E 136°43'0 0.1
2018-May-08 02:55N 34°54' E 136°43'0 0.0
2018-May-08 02:25N 34°54' E 136°43'0 0.0
2018-May-08 01:58N 34°54' E 136°43'0 0.0
2018-May-08 01:28N 34°54' E 136°43'0 0.2
2018-May-08 00:58N 34°53' E 136°43'0 0.2
2018-May-08 00:25N 34°53' E 136°43'0 0.2
2018-May-07 23:58N 34°53' E 136°43'0 0.1
2018-May-07 23:28N 34°53' E 136°43'0 0.1
2018-May-07 22:58N 34°53' E 136°43'0 0.0
2018-May-07 22:28N 34°53' E 136°43'0 0.0
2018-May-07 21:58N 34°53' E 136°43'0 0.0
2018-May-07 21:25N 34°53' E 136°43'0 0.0
2018-May-07 20:58N 34°53' E 136°43'0 0.0
2018-May-07 20:28N 34°53' E 136°43'0 0.1
2018-May-07 19:58N 34°53' E 136°43'0 0.0
2018-May-07 19:28N 34°53' E 136°43'0 0.0
2018-May-07 18:55N 34°53' E 136°43'0 0.0
2018-May-07 18:28N 34°53' E 136°43'0 0.0
2018-May-07 17:55N 34°53' E 136°43'0 0.0
2018-May-07 17:28N 34°53' E 136°43'0 0.2
2018-May-07 16:58N 34°53' E 136°43'0 0.4
2018-May-07 16:28N 34°54' E 136°43'0 0.1
2018-May-07 15:58N 34°54' E 136°43'0 0.1
2018-May-07 15:28N 34°53' E 136°43'0 0.0
2018-May-07 14:58N 34°54' E 136°43'0 0.0
2018-May-07 14:25N 34°53' E 136°43'0 0.0
2018-May-07 13:58N 34°53' E 136°43'0 0.1
2018-May-07 13:28N 34°53' E 136°43'0 0.0
2018-May-07 12:58N 34°53' E 136°43'0 0.0
2018-May-07 12:28N 34°53' E 136°43'0 0.0
2018-May-07 11:58N 34°53' E 136°43'0 0.1
2018-May-07 11:28N 34°53' E 136°43'0 0.0
2018-May-07 10:58N 34°53' E 136°43'0 0.0
2018-May-07 10:28N 34°53' E 136°43'0 0.0
2018-May-07 09:49N 34°53' E 136°43'0 0.1
2018-May-07 09:28N 34°53' E 136°43'0 0.0
2018-May-07 08:58N 34°53' E 136°43'0 0.0
2018-May-07 08:25N 34°53' E 136°43'0 0.1
2018-May-07 07:55N 34°53' E 136°43'0 0.0
2018-May-07 07:28N 34°53' E 136°43'0 0.1
2018-May-07 06:58N 34°53' E 136°43'0 0.2
2018-May-07 06:25N 34°53' E 136°43'0 0.0
2018-May-07 05:55N 34°53' E 136°43'0 0.0
2018-May-07 05:25N 34°53' E 136°43'0 0.0
2018-May-07 04:58N 34°53' E 136°43'0 0.0
2018-May-07 04:28N 34°53' E 136°43'0 0.0
2018-May-07 03:58N 34°53' E 136°43'0 0.0
2018-May-07 03:28N 34°53' E 136°43'0 0.0
2018-May-07 02:55N 34°53' E 136°43'0 0.0
2018-May-07 02:28N 34°53' E 136°43'0 0.0
2018-May-07 01:55N 34°53' E 136°43'0 0.0
2018-May-07 01:28N 34°53' E 136°43'0 0.0
2018-May-07 00:55N 34°53' E 136°43'0 0.1
2018-May-07 00:25N 34°53' E 136°43'0 0.0
2018-May-06 23:55N 34°53' E 136°43'0 0.0
2018-May-06 23:28N 34°53' E 136°43'0 0.1
2018-May-06 22:58N 34°53' E 136°43'0 0.0
2018-May-06 22:28N 34°53' E 136°43'0 0.1
2018-May-06 21:58N 34°53' E 136°43'0 0.0
2018-May-06 21:28N 34°53' E 136°43'0 0.0
2018-May-06 20:58N 34°53' E 136°43'0 0.0
2018-May-06 20:28N 34°53' E 136°43'0 0.1
2018-May-06 19:55N 34°53' E 136°43'0 0.1
2018-May-06 19:28N 34°53' E 136°43'0 0.1
2018-May-06 18:58N 34°53' E 136°43'0 0.0
2018-May-06 18:25N 34°53' E 136°43'0 0.0
2018-May-06 17:58N 34°53' E 136°43'0 0.0
2018-May-06 17:28N 34°53' E 136°43'0 0.1
2018-May-06 16:58N 34°53' E 136°43'0 0.2
2018-May-06 16:28N 34°53' E 136°43'0 0.3
2018-May-06 15:55N 34°53' E 136°43'0 0.2
2018-May-06 15:28N 34°53' E 136°43'0 0.1
2018-May-06 14:55N 34°53' E 136°43'0 0.0
2018-May-06 14:28N 34°53' E 136°43'0 0.1
2018-May-06 13:58N 34°53' E 136°43'0 0.1
2018-May-06 13:28N 34°53' E 136°43'0 0.0
2018-May-06 11:55N 34°54' E 136°43'0 0.0
2018-May-06 11:25N 34°54' E 136°43'0 0.0
2018-May-06 10:49N 34°54' E 136°43'0 0.0
2018-May-06 10:25N 34°54' E 136°43'0 0.0
2018-May-06 09:58N 34°54' E 136°43'0 0.0
2018-May-06 09:25N 34°54' E 136°43'0 0.0
2018-May-06 08:55N 34°54' E 136°43'0 0.1
2018-May-06 08:25N 34°54' E 136°43'0 0.0
2018-May-06 07:58N 34°54' E 136°43'0 0.0
2018-May-06 07:25N 34°54' E 136°43'0 0.1
2018-May-06 06:55N 34°54' E 136°43'0 0.2
2018-May-06 06:28N 34°53' E 136°43'0 0.1
2018-May-06 05:55N 34°53' E 136°43'0 0.1
2018-May-06 05:28N 34°53' E 136°43'0 0.1
2018-May-06 04:58N 34°53' E 136°43'0 0.1
2018-May-06 04:28N 34°53' E 136°43'0 0.1
2018-May-06 03:55N 34°53' E 136°43'0 0.0
2018-May-06 03:25N 34°53' E 136°43'0 0.0
2018-May-06 02:58N 34°53' E 136°43'0 0.0
2018-May-06 02:28N 34°53' E 136°43'0 0.1
2018-May-06 01:58N 34°53' E 136°43'0 0.3
2018-May-06 01:28N 34°53' E 136°43'0 0.1
2018-May-06 00:58N 34°53' E 136°43'0 0.0
2018-May-06 00:28N 34°53' E 136°43'0 0.0
2018-May-05 23:58N 34°53' E 136°43'0 0.0
2018-May-05 23:28N 34°53' E 136°43'0 0.0
2018-May-05 22:58N 34°53' E 136°43'0 0.0
2018-May-05 22:25N 34°53' E 136°43'0 0.1
2018-May-05 21:58N 34°53' E 136°43'0 0.0
2018-May-05 21:28N 34°53' E 136°43'0 0.0
2018-May-05 20:58N 34°53' E 136°43'0 0.1
2018-May-05 20:25N 34°53' E 136°43'0 0.0
2018-May-05 19:55N 34°53' E 136°43'0 0.1
2018-May-05 19:28N 34°53' E 136°43'0 0.0
2018-May-05 18:55N 34°53' E 136°43'0 0.0
2018-May-05 18:25N 34°53' E 136°43'0 0.1
2018-May-05 17:58N 34°53' E 136°43'0 0.0
2018-May-05 17:25N 34°53' E 136°43'0 0.0
2018-May-05 16:58N 34°53' E 136°43'0 0.1
2018-May-05 16:25N 34°53' E 136°43'0 0.0
2018-May-05 15:58N 34°53' E 136°43'0 0.0
2018-May-05 15:28N 34°53' E 136°43'0 0.1
2018-May-05 14:55N 34°53' E 136°43'0 0.1
2018-May-05 14:28N 34°53' E 136°43'0 0.0
2018-May-05 13:58N 34°53' E 136°43'0 0.0
2018-May-05 13:28N 34°53' E 136°43'0 0.0
2018-May-05 12:55N 34°53' E 136°43'0 0.0
2018-May-05 12:28N 34°53' E 136°43'0 0.1
2018-May-05 11:58N 34°53' E 136°43'0 0.1
2018-May-05 11:25N 34°53' E 136°43'0 0.1
2018-May-05 10:58N 34°53' E 136°43'0 0.0
2018-May-05 10:28N 34°53' E 136°43'0 0.2
2018-May-05 09:52N 34°54' E 136°43'0 0.0
2018-May-05 09:28N 34°54' E 136°43'0 0.1
2018-May-05 08:58N 34°54' E 136°43'0 0.0
2018-May-05 08:28N 34°54' E 136°43'0 0.0
2018-May-05 07:58N 34°54' E 136°43'0 0.1
2018-May-05 07:25N 34°54' E 136°43'0 0.0
2018-May-05 06:49N 34°53' E 136°43'0 0.1
2018-May-05 06:28N 34°53' E 136°43'0 0.0
2018-May-05 05:58N 34°53' E 136°43'0 0.1
2018-May-05 05:25N 34°53' E 136°43'0 0.1
2018-May-05 04:58N 34°53' E 136°43'0 0.1
2018-May-05 04:28N 34°53' E 136°43'0 0.1
2018-May-05 03:58N 34°53' E 136°43'0 0.1
2018-May-05 03:28N 34°53' E 136°43'0 0.0
2018-May-05 02:55N 34°53' E 136°43'0 0.0
2018-May-05 02:25N 34°53' E 136°43'0 0.0
2018-May-05 01:58N 34°53' E 136°43'0 0.1
2018-May-05 01:28N 34°53' E 136°43'0 0.2
2018-May-05 00:58N 34°53' E 136°43'0 0.1
2018-May-05 00:28N 34°53' E 136°43'0 0.1
2018-May-04 23:58N 34°53' E 136°43'0 0.1
2018-May-04 23:28N 34°53' E 136°43'0 0.1
2018-May-04 22:55N 34°53' E 136°43'0 0.0
2018-May-04 22:28N 34°53' E 136°43'0 0.0
2018-May-04 21:58N 34°53' E 136°43'0 0.0
2018-May-04 21:28N 34°53' E 136°43'0 0.1
2018-May-04 20:58N 34°53' E 136°43'0 0.0
2018-May-04 20:28N 34°53' E 136°43'0 0.0
2018-May-04 19:58N 34°53' E 136°43'0 0.1
2018-May-04 19:28N 34°53' E 136°43'0 0.1
2018-May-04 18:58N 34°53' E 136°43'0 0.1
2018-May-04 18:25N 34°53' E 136°43'0 0.1
2018-May-04 17:58N 34°53' E 136°43'0 0.0
2018-May-04 17:28N 34°53' E 136°43'0 0.1
2018-May-04 16:58N 34°53' E 136°43'0 0.0
2018-May-04 16:25N 34°53' E 136°43'0 0.0
2018-May-04 15:58N 34°53' E 136°43'0 0.0
2018-May-04 15:28N 34°53' E 136°43'  
Track history (hours):
 
Tides and Currents Weather Stations Pressure Air Temp Water Temp Dewpoint Dewpoint Depression Visibility Wind Speed Wind Dir Waves Ship Positions

Anangel Virtue

Last reported at 2018-May-14 15:06 UTC. Time now 2018-May-24 23:27 UTC.
Position N 33°16' E 131°38'.
Warning: this ship's position is 10 days out of date.

Length 292 m; draft 11.9 m.

Type: Cargo ship. MMSI: 241197000.

Date/timePositionNaut miles runAvg speedWind from/ knotsBaromVisibWave heightAir tempDewpointWater temp
2018-May-14 15:06N 33°16' E 131°38'0 0.0
2018-May-14 15:00N 33°16' E 131°38'0 0.3
2018-May-14 14:26N 33°16' E 131°38'1 2.0
2018-May-14 14:00N 33°17' E 131°39'5 9.4
2018-May-14 13:30N 33°18' E 131°44'3 4.4
2018-May-14 12:54N 33°17' E 131°47'0 0.2
2018-May-14 12:30N 33°17' E 131°47'0 0.1
2018-May-14 09:12N 33°17' E 131°47'0 0.1
2018-May-14 08:54N 33°17' E 131°47'0 0.1
2018-May-14 07:18N 33°17' E 131°47'0 0.3
2018-May-14 07:00N 33°17' E 131°47'0 0.2
2018-May-14 06:18N 33°17' E 131°47'0 0.2
2018-May-14 06:00N 33°17' E 131°47'0 0.1
2018-May-14 05:21N 33°17' E 131°47'0 0.0
2018-May-14 03:36N 33°17' E 131°47'0 0.0
2018-May-14 03:12N 33°17' E 131°47'0 0.0
2018-May-14 02:54N 33°17' E 131°47'0 0.1
2018-May-14 02:24N 33°17' E 131°47'0 0.0
2018-May-14 02:00N 33°17' E 131°47'0 0.0
2018-May-14 01:30N 33°17' E 131°47'0 0.0
2018-May-14 01:00N 33°17' E 131°47'0 0.1
2018-May-14 00:30N 33°17' E 131°47'0 0.1
2018-May-14 00:00N 33°17' E 131°47'0 0.1
2018-May-13 23:12N 33°17' E 131°47'0 0.1
2018-May-13 22:54N 33°17' E 131°47'0 0.2
2018-May-13 22:27N 33°17' E 131°47'0 0.2
2018-May-13 22:00N 33°17' E 131°47'0 0.0
2018-May-13 21:30N 33°17' E 131°47'0 0.1
2018-May-13 21:00N 33°17' E 131°47'0 0.0
2018-May-13 20:24N 33°17' E 131°47'0 0.1
2018-May-13 19:54N 33°17' E 131°47'0 0.1
2018-May-13 19:30N 33°17' E 131°47'0 0.1
2018-May-13 19:00N 33°17' E 131°47'0 0.0
2018-May-13 18:30N 33°17' E 131°47'0 0.0
2018-May-13 18:00N 33°17' E 131°47'0 0.0
2018-May-13 17:30N 33°17' E 131°47'0 0.0
2018-May-13 17:00N 33°17' E 131°47'0 0.1
2018-May-13 16:30N 33°17' E 131°47'0 0.0
2018-May-13 16:00N 33°17' E 131°47'0 0.1
2018-May-13 15:30N 33°17' E 131°47'0 0.1
2018-May-13 15:00N 33°17' E 131°47'0 0.1
2018-May-13 14:30N 33°17' E 131°47'0 0.0
2018-May-13 14:00N 33°17' E 131°47'0 0.1
2018-May-13 13:30N 33°17' E 131°47'0 0.3
2018-May-13 13:00N 33°17' E 131°47'2 3.8
2018-May-13 12:30N 33°18' E 131°49'611.9
2018-May-13 12:00N 33°20' E 131°56'611.8
2018-May-13 11:30N 33°18' E 132°02'611.7
2018-May-13 11:00N 33°12' E 132°00'3 6.0
2018-May-13 10:30N 33°10' E 132°03'3 6.5
2018-May-13 09:59N 33°08' E 132°06'5 8.4
2018-May-13 09:27N 33°05' E 132°10'4 8.0
2018-May-13 08:55N 33°02' E 132°14'911.8
2018-May-13 08:10N 32°55' E 132°19'212.0
2018-May-13 08:00N 32°53' E 132°20'4610.0
2018-May-13 03:21N 32°40' E 133°13'410.3
2018-May-13 03:00N 32°40' E 133°17'1511.0
2018-May-13 01:38N 32°42' E 133°35'9910.4
2018-May-12 16:05N 33°15' E 135°27'110.0
2018-May-12 15:59N 33°16' E 135°28'4711.0
2018-May-12 11:42N 33°39' E 136°17'1111.1
2018-May-12 10:41N 33°47' E 136°27'611.1
2018-May-12 10:09N 33°51' E 136°32'210.9
2018-May-12 09:56N 33°53' E 136°33'510.6
2018-May-12 09:30N 33°56' E 136°37'610.3
2018-May-12 08:56N 34°00' E 136°42'510.0
2018-May-12 08:29N 34°03' E 136°46'16 9.7
2018-May-12 06:51N 34°15' E 136°60'511.3
2018-May-12 06:27N 34°19' E 137°01'511.1
2018-May-12 05:59N 34°24' E 137°02'511.0
2018-May-12 05:30N 34°29' E 137°03'610.9
2018-May-12 04:57N 34°34' E 136°59'613.5
2018-May-12 04:30N 34°38' E 136°53'713.6
2018-May-12 04:00N 34°43' E 136°47'713.8
2018-May-12 03:30N 34°49' E 136°45'714.1
2018-May-12 03:01N 34°56' E 136°46'612.9
2018-May-12 02:30N 35°01' E 136°51'1 1.9
2018-May-12 02:00N 35°02' E 136°52'0 0.0
2018-May-12 01:31N 35°02' E 136°52'0 0.0
2018-May-12 00:56N 35°02' E 136°52'0 0.0
2018-May-12 00:29N 35°02' E 136°52'0 0.0
2018-May-11 23:59N 35°02' E 136°52'0 0.0
2018-May-11 23:29N 35°02' E 136°52'0 0.0
2018-May-11 22:59N 35°02' E 136°52'0 0.0
2018-May-11 22:29N 35°02' E 136°52'0 0.0
2018-May-11 21:56N 35°02' E 136°52'0 0.0
2018-May-11 21:29N 35°02' E 136°52'0 0.0
2018-May-11 20:59N 35°02' E 136°52'0 0.0
2018-May-11 20:29N 35°02' E 136°52'0 0.0
2018-May-11 19:59N 35°02' E 136°52'0 0.0
2018-May-11 19:29N 35°02' E 136°52'0 0.0
2018-May-11 18:59N 35°02' E 136°52'0 0.0
2018-May-11 18:29N 35°02' E 136°52'0 0.0
2018-May-11 17:59N 35°02' E 136°52'0 0.0
2018-May-11 17:26N 35°02' E 136°52'0 0.0
2018-May-11 16:56N 35°02' E 136°52'0 0.0
2018-May-11 16:29N 35°02' E 136°52'0 0.0
2018-May-11 15:56N 35°02' E 136°52'0 0.0
2018-May-11 15:26N 35°02' E 136°52'0 0.0
2018-May-11 14:59N 35°02' E 136°52'0 0.0
2018-May-11 14:26N 35°02' E 136°52'0 0.0
2018-May-11 13:59N 35°02' E 136°52'0 0.0
2018-May-11 13:29N 35°02' E 136°52'0 0.0
2018-May-11 12:59N 35°02' E 136°52'0 0.0
2018-May-11 12:29N 35°02' E 136°52'0 0.0
2018-May-11 11:59N 35°02' E 136°52'0 0.0
2018-May-11 11:29N 35°02' E 136°52'0 0.0
2018-May-11 10:59N 35°02' E 136°52'0 0.0
2018-May-11 10:26N 35°02' E 136°52'0 0.0
2018-May-11 09:59N 35°02' E 136°52'0 0.0
2018-May-11 09:29N 35°02' E 136°52'0 0.0
2018-May-11 08:59N 35°02' E 136°52'0 0.0
2018-May-11 08:26N 35°02' E 136°52'0 0.0
2018-May-11 07:59N 35°02' E 136°52'0 0.0
2018-May-11 07:26N 35°02' E 136°52'0 0.0
2018-May-11 06:59N 35°02' E 136°52'0 0.0
2018-May-11 06:29N 35°02' E 136°52'0 0.0
2018-May-11 05:53N 35°02' E 136°52'0 0.0
2018-May-11 05:29N 35°02' E 136°52'0 0.0
2018-May-11 04:59N 35°02' E 136°52'0 0.0
2018-May-11 04:29N 35°02' E 136°52'0 0.0
2018-May-11 03:59N 35°02' E 136°52'0 0.0
2018-May-11 03:29N 35°02' E 136°52'0 0.0
2018-May-11 02:59N 35°02' E 136°52'0 0.0
2018-May-11 02:29N 35°02' E 136°52'0 0.0
2018-May-11 01:59N 35°02' E 136°52'0 0.0
2018-May-11 01:29N 35°02' E 136°52'0 0.0
2018-May-11 00:59N 35°02' E 136°52'0 0.0
2018-May-11 00:29N 35°02' E 136°52'0 0.0
2018-May-10 23:59N 35°02' E 136°52'0 0.0
2018-May-10 23:26N 35°02' E 136°52'0 0.0
2018-May-10 22:59N 35°02' E 136°52'0 0.0
2018-May-10 22:26N 35°02' E 136°52'0 0.0
2018-May-10 21:59N 35°02' E 136°52'0 0.0
2018-May-10 21:29N 35°02' E 136°52'0 0.0
2018-May-10 20:56N 35°02' E 136°52'0 0.0
2018-May-10 20:29N 35°02' E 136°52'0 0.0
2018-May-10 19:56N 35°02' E 136°52'0 0.0
2018-May-10 19:26N 35°02' E 136°52'0 0.0
2018-May-10 18:59N 35°02' E 136°52'0 0.0
2018-May-10 18:29N 35°02' E 136°52'0 0.0
2018-May-10 17:56N 35°02' E 136°52'0 0.0
2018-May-10 17:29N 35°02' E 136°52'0 0.0
2018-May-10 16:56N 35°02' E 136°52'0 0.0
2018-May-10 16:23N 35°02' E 136°52'0 0.0
2018-May-10 15:59N 35°02' E 136°52'0 0.0
2018-May-10 15:29N 35°02' E 136°52'0 0.0
2018-May-10 14:59N 35°02' E 136°52'0 0.0
2018-May-10 14:29N 35°02' E 136°52'0 0.0
2018-May-10 13:59N 35°02' E 136°52'0 0.0
2018-May-10 13:26N 35°02' E 136°52'0 0.0
2018-May-10 12:56N 35°02' E 136°52'0 0.0
2018-May-10 12:29N 35°02' E 136°52'0 0.0
2018-May-10 11:59N 35°02' E 136°52'0 0.0
2018-May-10 11:29N 35°02' E 136°52'0 0.0
2018-May-10 10:56N 35°02' E 136°52'0 0.0
2018-May-10 10:26N 35°02' E 136°52'0 0.0
2018-May-10 09:59N 35°02' E 136°52'0 0.0
2018-May-10 09:26N 35°02' E 136°52'0 0.0
2018-May-10 08:59N 35°02' E 136°52'0 0.0
2018-May-10 08:29N 35°02' E 136°52'0 0.0
2018-May-10 07:56N 35°02' E 136°52'0 0.0
2018-May-10 07:29N 35°02' E 136°52'0 0.0
2018-May-10 06:56N 35°02' E 136°52'0 0.0
2018-May-10 06:29N 35°02' E 136°52'0 0.0
2018-May-10 05:59N 35°02' E 136°52'0 0.0
2018-May-10 05:26N 35°02' E 136°52'0 0.0
2018-May-10 04:59N 35°02' E 136°52'0 0.0
2018-May-10 04:29N 35°02' E 136°52'0 0.0
2018-May-10 03:56N 35°02' E 136°52'0 0.0
2018-May-10 03:26N 35°02' E 136°52'0 0.0
2018-May-10 02:59N 35°02' E 136°52'0 0.0
2018-May-10 02:26N 35°02' E 136°52'0 0.0
2018-May-10 01:59N 35°02' E 136°52'0 0.0
2018-May-10 01:29N 35°02' E 136°52'0 0.0
2018-May-10 00:59N 35°02' E 136°52'0 0.0
2018-May-10 00:29N 35°02' E 136°52'0 0.0
2018-May-09 23:59N 35°02' E 136°52'0 0.0
2018-May-09 23:29N 35°02' E 136°52'0 0.0
2018-May-09 22:59N 35°02' E 136°52'0 0.0
2018-May-09 22:29N 35°02' E 136°52'0 0.0
2018-May-09 21:56N 35°02' E 136°52'0 0.0
2018-May-09 21:29N 35°02' E 136°52'0 0.0
2018-May-09 20:59N 35°02' E 136°52'0 0.0
2018-May-09 20:29N 35°02' E 136°52'0 0.0
2018-May-09 19:59N 35°02' E 136°52'0 0.0
2018-May-09 19:29N 35°02' E 136°52'0 0.0
2018-May-09 18:59N 35°02' E 136°52'0 0.0
2018-May-09 18:29N 35°02' E 136°52'0 0.0
2018-May-09 17:59N 35°02' E 136°52'0 0.0
2018-May-09 17:29N 35°02' E 136°52'0 0.0
2018-May-09 16:56N 35°02' E 136°52'0 0.0
2018-May-09 16:29N 35°02' E 136°52'0 0.0
2018-May-09 15:56N 35°02' E 136°52'0 0.0
2018-May-09 15:29N 35°02' E 136°52'0 0.0
2018-May-09 14:59N 35°02' E 136°52'0 0.0
2018-May-09 14:29N 35°02' E 136°52'0 0.0
2018-May-09 13:56N 35°02' E 136°52'0 0.0
2018-May-09 13:26N 35°02' E 136°52'0 0.0
2018-May-09 12:56N 35°02' E 136°52'0 0.0
2018-May-09 12:29N 35°02' E 136°52'0 0.0
2018-May-09 11:59N 35°02' E 136°52'0 0.0
2018-May-09 11:26N 35°02' E 136°52'0 0.0
2018-May-09 10:59N 35°02' E 136°52'0 0.0
2018-May-09 10:29N 35°02' E 136°52'0 0.0
2018-May-09 09:59N 35°02' E 136°52'0 0.0
2018-May-09 09:29N 35°02' E 136°52'0 0.0
2018-May-09 08:59N 35°02' E 136°52'0 0.0
2018-May-09 08:29N 35°02' E 136°52'0 0.0
2018-May-09 07:56N 35°02' E 136°52'0 0.0
2018-May-09 07:29N 35°02' E 136°52'0 0.0
2018-May-09 06:56N 35°02' E 136°52'0 0.0
2018-May-09 06:26N 35°02' E 136°52'0 0.0
2018-May-09 05:56N 35°02' E 136°52'0 0.0
2018-May-09 05:29N 35°02' E 136°52'0 0.0
2018-May-09 04:56N 35°02' E 136°52'0 0.0
2018-May-09 04:29N 35°02' E 136°52'0 0.0
2018-May-09 03:59N 35°02' E 136°52'0 0.0
2018-May-09 03:29N 35°02' E 136°52'0 0.0
2018-May-09 02:59N 35°02' E 136°52'0 0.0
2018-May-09 02:29N 35°02' E 136°52'0 0.0
2018-May-09 01:56N 35°02' E 136°52'0 0.0
2018-May-09 01:29N 35°02' E 136°52'0 0.0
2018-May-09 00:56N 35°02' E 136°52'0 0.0
2018-May-09 00:29N 35°02' E 136°52'0 0.0
2018-May-08 23:59N 35°02' E 136°52'0 0.0
2018-May-08 23:29N 35°02' E 136°52'0 0.0
2018-May-08 22:59N 35°02' E 136°52'0 0.0
2018-May-08 22:29N 35°02' E 136°52'0 0.0
2018-May-08 21:59N 35°02' E 136°52'0 0.0
2018-May-08 21:29N 35°02' E 136°52'0 0.0
2018-May-08 20:56N 35°02' E 136°52'0 0.1
2018-May-08 20:30N 35°02' E 136°52'1 2.7
2018-May-08 20:01N 35°01' E 136°51'611.0
2018-May-08 19:30N 34°57' E 136°47'4 8.9
2018-May-08 19:00N 34°53' E 136°43'0 0.1
2018-May-08 18:25N 34°53' E 136°43'0 0.1
2018-May-08 17:58N 34°53' E 136°43'0 0.2
2018-May-08 17:25N 34°54' E 136°43'0 0.2
2018-May-08 16:58N 34°54' E 136°43'0 0.1
2018-May-08 16:28N 34°54' E 136°43'0 0.0
2018-May-08 15:55N 34°54' E 136°43'0 0.0
2018-May-08 15:28N 34°54' E 136°43'0 0.0
2018-May-08 14:58N 34°54' E 136°43'0 0.0
2018-May-08 14:28N 34°54' E 136°43'0 0.0
2018-May-08 13:58N 34°54' E 136°43'0 0.1
2018-May-08 13:28N 34°54' E 136°43'0 0.0
2018-May-08 12:58N 34°53' E 136°43'0 0.1
2018-May-08 12:25N 34°54' E 136°43'0 0.1
2018-May-08 11:58N 34°54' E 136°43'0 0.1
2018-May-08 11:28N 34°54' E 136°43'0 0.0
2018-May-08 10:58N 34°54' E 136°43'0 0.1
2018-May-08 10:25N 34°54' E 136°43'0 0.1
2018-May-08 09:43N 34°54' E 136°43'0 0.0
2018-May-08 09:25N 34°54' E 136°43'0 0.0
2018-May-08 08:58N 34°54' E 136°43'0 0.1
2018-May-08 08:19N 34°54' E 136°43'0 0.1
2018-May-08 07:55N 34°54' E 136°43'0 0.0
2018-May-08 07:25N 34°54' E 136°43'0 0.0
2018-May-08 06:55N 34°54' E 136°43'0 0.0
2018-May-08 06:25N 34°54' E 136°43'0 0.1
2018-May-08 05:58N 34°54' E 136°43'0 0.1
2018-May-08 05:28N 34°54' E 136°43'0 0.0
2018-May-08 04:58N 34°54' E 136°43'0 0.0
2018-May-08 04:28N 34°54' E 136°43'0 0.0
2018-May-08 03:55N 34°54' E 136°43'0 0.0
2018-May-08 03:28N 34°54' E 136°43'0 0.1
2018-May-08 02:55N 34°54' E 136°43'0 0.0
2018-May-08 02:25N 34°54' E 136°43'0 0.0
2018-May-08 01:58N 34°54' E 136°43'0 0.0
2018-May-08 01:28N 34°54' E 136°43'0 0.2
2018-May-08 00:58N 34°53' E 136°43'0 0.2
2018-May-08 00:25N 34°53' E 136°43'0 0.2
2018-May-07 23:58N 34°53' E 136°43'0 0.1
2018-May-07 23:28N 34°53' E 136°43'0 0.1
2018-May-07 22:58N 34°53' E 136°43'0 0.0
2018-May-07 22:28N 34°53' E 136°43'0 0.0
2018-May-07 21:58N 34°53' E 136°43'0 0.0
2018-May-07 21:25N 34°53' E 136°43'0 0.0
2018-May-07 20:58N 34°53' E 136°43'0 0.0
2018-May-07 20:28N 34°53' E 136°43'0 0.1
2018-May-07 19:58N 34°53' E 136°43'0 0.0
2018-May-07 19:28N 34°53' E 136°43'0 0.0
2018-May-07 18:55N 34°53' E 136°43'0 0.0
2018-May-07 18:28N 34°53' E 136°43'0 0.0
2018-May-07 17:55N 34°53' E 136°43'0 0.0
2018-May-07 17:28N 34°53' E 136°43'0 0.2
2018-May-07 16:58N 34°53' E 136°43'0 0.4
2018-May-07 16:28N 34°54' E 136°43'0 0.1
2018-May-07 15:58N 34°54' E 136°43'0 0.1
2018-May-07 15:28N 34°53' E 136°43'0 0.0
2018-May-07 14:58N 34°54' E 136°43'0 0.0
2018-May-07 14:25N 34°53' E 136°43'0 0.0
2018-May-07 13:58N 34°53' E 136°43'0 0.1
2018-May-07 13:28N 34°53' E 136°43'0 0.0
2018-May-07 12:58N 34°53' E 136°43'0 0.0
2018-May-07 12:28N 34°53' E 136°43'0 0.0
2018-May-07 11:58N 34°53' E 136°43'0 0.1
2018-May-07 11:28N 34°53' E 136°43'0 0.0
2018-May-07 10:58N 34°53' E 136°43'0 0.0
2018-May-07 10:28N 34°53' E 136°43'0 0.0
2018-May-07 09:49N 34°53' E 136°43'0 0.1
2018-May-07 09:28N 34°53' E 136°43'0 0.0
2018-May-07 08:58N 34°53' E 136°43'0 0.0
2018-May-07 08:25N 34°53' E 136°43'0 0.1
2018-May-07 07:55N 34°53' E 136°43'0 0.0
2018-May-07 07:28N 34°53' E 136°43'0 0.1
2018-May-07 06:58N 34°53' E 136°43'0 0.2
2018-May-07 06:25N 34°53' E 136°43'0 0.0
2018-May-07 05:55N 34°53' E 136°43'0 0.0
2018-May-07 05:25N 34°53' E 136°43'0 0.0
2018-May-07 04:58N 34°53' E 136°43'0 0.0
2018-May-07 04:28N 34°53' E 136°43'0 0.0
2018-May-07 03:58N 34°53' E 136°43'0 0.0
2018-May-07 03:28N 34°53' E 136°43'0 0.0
2018-May-07 02:55N 34°53' E 136°43'0 0.0
2018-May-07 02:28N 34°53' E 136°43'0 0.0
2018-May-07 01:55N 34°53' E 136°43'0 0.0
2018-May-07 01:28N 34°53' E 136°43'0 0.0
2018-May-07 00:55N 34°53' E 136°43'0 0.1
2018-May-07 00:25N 34°53' E 136°43'0 0.0
2018-May-06 23:55N 34°53' E 136°43'0 0.0
2018-May-06 23:28N 34°53' E 136°43'0 0.1
2018-May-06 22:58N 34°53' E 136°43'0 0.0
2018-May-06 22:28N 34°53' E 136°43'0 0.1
2018-May-06 21:58N 34°53' E 136°43'0 0.0
2018-May-06 21:28N 34°53' E 136°43'0 0.0
2018-May-06 20:58N 34°53' E 136°43'0 0.0
2018-May-06 20:28N 34°53' E 136°43'0 0.1
2018-May-06 19:55N 34°53' E 136°43'0 0.1
2018-May-06 19:28N 34°53' E 136°43'0 0.1
2018-May-06 18:58N 34°53' E 136°43'0 0.0
2018-May-06 18:25N 34°53' E 136°43'0 0.0
2018-May-06 17:58N 34°53' E 136°43'0 0.0
2018-May-06 17:28N 34°53' E 136°43'0 0.1
2018-May-06 16:58N 34°53' E 136°43'0 0.2
2018-May-06 16:28N 34°53' E 136°43'0 0.3
2018-May-06 15:55N 34°53' E 136°43'0 0.2
2018-May-06 15:28N 34°53' E 136°43'0 0.1
2018-May-06 14:55N 34°53' E 136°43'0 0.0
2018-May-06 14:28N 34°53' E 136°43'0 0.1
2018-May-06 13:58N 34°53' E 136°43'0 0.1
2018-May-06 13:28N 34°53' E 136°43'0 0.0
2018-May-06 11:55N 34°54' E 136°43'0 0.0
2018-May-06 11:25N 34°54' E 136°43'0 0.0
2018-May-06 10:49N 34°54' E 136°43'0 0.0
2018-May-06 10:25N 34°54' E 136°43'0 0.0
2018-May-06 09:58N 34°54' E 136°43'0 0.0
2018-May-06 09:25N 34°54' E 136°43'0 0.0
2018-May-06 08:55N 34°54' E 136°43'0 0.1
2018-May-06 08:25N 34°54' E 136°43'0 0.0
2018-May-06 07:58N 34°54' E 136°43'0 0.0
2018-May-06 07:25N 34°54' E 136°43'0 0.1
2018-May-06 06:55N 34°54' E 136°43'0 0.2
2018-May-06 06:28N 34°53' E 136°43'0 0.1
2018-May-06 05:55N 34°53' E 136°43'0 0.1
2018-May-06 05:28N 34°53' E 136°43'0 0.1
2018-May-06 04:58N 34°53' E 136°43'0 0.1
2018-May-06 04:28N 34°53' E 136°43'0 0.1
2018-May-06 03:55N 34°53' E 136°43'0 0.0
2018-May-06 03:25N 34°53' E 136°43'0 0.0
2018-May-06 02:58N 34°53' E 136°43'0 0.0
2018-May-06 02:28N 34°53' E 136°43'0 0.1
2018-May-06 01:58N 34°53' E 136°43'0 0.3
2018-May-06 01:28N 34°53' E 136°43'0 0.1
2018-May-06 00:58N 34°53' E 136°43'0 0.0
2018-May-06 00:28N 34°53' E 136°43'0 0.0
2018-May-05 23:58N 34°53' E 136°43'0 0.0
2018-May-05 23:28N 34°53' E 136°43'0 0.0
2018-May-05 22:58N 34°53' E 136°43'0 0.0
2018-May-05 22:25N 34°53' E 136°43'0 0.1
2018-May-05 21:58N 34°53' E 136°43'0 0.0
2018-May-05 21:28N 34°53' E 136°43'0 0.0
2018-May-05 20:58N 34°53' E 136°43'0 0.1
2018-May-05 20:25N 34°53' E 136°43'0 0.0
2018-May-05 19:55N 34°53' E 136°43'0 0.1
2018-May-05 19:28N 34°53' E 136°43'0 0.0
2018-May-05 18:55N 34°53' E 136°43'0 0.0
2018-May-05 18:25N 34°53' E 136°43'0 0.1
2018-May-05 17:58N 34°53' E 136°43'0 0.0
2018-May-05 17:25N 34°53' E 136°43'0 0.0
2018-May-05 16:58N 34°53' E 136°43'0 0.1
2018-May-05 16:25N 34°53' E 136°43'0 0.0
2018-May-05 15:58N 34°53' E 136°43'0 0.0
2018-May-05 15:28N 34°53' E 136°43'0 0.1
2018-May-05 14:55N 34°53' E 136°43'0 0.1
2018-May-05 14:28N 34°53' E 136°43'0 0.0
2018-May-05 13:58N 34°53' E 136°43'0 0.0
2018-May-05 13:28N 34°53' E 136°43'0 0.0
2018-May-05 12:55N 34°53' E 136°43'0 0.0
2018-May-05 12:28N 34°53' E 136°43'0 0.1
2018-May-05 11:58N 34°53' E 136°43'0 0.1
2018-May-05 11:25N 34°53' E 136°43'0 0.1
2018-May-05 10:58N 34°53' E 136°43'0 0.0
2018-May-05 10:28N 34°53' E 136°43'0 0.2
2018-May-05 09:52N 34°54' E 136°43'0 0.0
2018-May-05 09:28N 34°54' E 136°43'0 0.1
2018-May-05 08:58N 34°54' E 136°43'0 0.0
2018-May-05 08:28N 34°54' E 136°43'0 0.0
2018-May-05 07:58N 34°54' E 136°43'0 0.1
2018-May-05 07:25N 34°54' E 136°43'0 0.0
2018-May-05 06:49N 34°53' E 136°43'0 0.1
2018-May-05 06:28N 34°53' E 136°43'0 0.0
2018-May-05 05:58N 34°53' E 136°43'0 0.1
2018-May-05 05:25N 34°53' E 136°43'0 0.1
2018-May-05 04:58N 34°53' E 136°43'0 0.1
2018-May-05 04:28N 34°53' E 136°43'0 0.1
2018-May-05 03:58N 34°53' E 136°43'0 0.1
2018-May-05 03:28N 34°53' E 136°43'0 0.0
2018-May-05 02:55N 34°53' E 136°43'0 0.0
2018-May-05 02:25N 34°53' E 136°43'0 0.0
2018-May-05 01:58N 34°53' E 136°43'0 0.1
2018-May-05 01:28N 34°53' E 136°43'0 0.2
2018-May-05 00:58N 34°53' E 136°43'0 0.1
2018-May-05 00:28N 34°53' E 136°43'0 0.1
2018-May-04 23:58N 34°53' E 136°43'0 0.1
2018-May-04 23:28N 34°53' E 136°43'0 0.1
2018-May-04 22:55N 34°53' E 136°43'0 0.0
2018-May-04 22:28N 34°53' E 136°43'0 0.0
2018-May-04 21:58N 34°53' E 136°43'0 0.0
2018-May-04 21:28N 34°53' E 136°43'0 0.1
2018-May-04 20:58N 34°53' E 136°43'0 0.0
2018-May-04 20:28N 34°53' E 136°43'0 0.0
2018-May-04 19:58N 34°53' E 136°43'0 0.1
2018-May-04 19:28N 34°53' E 136°43'0 0.1
2018-May-04 18:58N 34°53' E 136°43'0 0.1
2018-May-04 18:25N 34°53' E 136°43'0 0.1
2018-May-04 17:58N 34°53' E 136°43'0 0.0
2018-May-04 17:28N 34°53' E 136°43'0 0.1
2018-May-04 16:58N 34°53' E 136°43'0 0.0
2018-May-04 16:25N 34°53' E 136°43'0 0.0
2018-May-04 15:58N 34°53' E 136°43'0 0.0
2018-May-04 15:28N 34°53' E 136°43'  

Dump ship's entire track history